<?xml version='1.0' encoding='UTF-8'?><gpx version="1.1" creator="JPX - https://github.com/jenetics/jpx" xmlns="http://www.topografix.com/GPX/1/1"><trk><trkseg><trkpt lat="45.8832277084186" lon="11.602081087861084"><ele>1049.0</ele><time>2026-03-24T07:28:37.979Z</time></trkpt><trkpt lat="45.88320397995052" lon="11.601993430151236"><ele>1049.0</ele><time>2026-03-24T07:28:45.979Z</time></trkpt><trkpt lat="45.883137760342706" lon="11.602004930697525"><ele>1049.0</ele><time>2026-03-24T07:28:51.979Z</time></trkpt><trkpt lat="45.88306786209464" lon="11.60203006285727"><ele>1049.0</ele><time>2026-03-24T07:28:56.979Z</time></trkpt><trkpt lat="45.88300099108336" lon="11.602063376641263"><ele>1049.0</ele><time>2026-03-24T07:29:01.979Z</time></trkpt><trkpt lat="45.882941958736765" lon="11.60202987674057"><ele>1049.0</ele><time>2026-03-24T07:29:05.979Z</time></trkpt><trkpt lat="45.88289038923095" lon="11.60196028536325"><ele>1049.0</ele><time>2026-03-24T07:29:12.979Z</time></trkpt><trkpt lat="45.88283041331135" lon="11.601912843271359"><ele>1050.0</ele><time>2026-03-24T07:29:14.979Z</time></trkpt><trkpt lat="45.882763972913814" lon="11.601876597172284"><ele>1051.0</ele><time>2026-03-24T07:29:19.979Z</time></trkpt><trkpt lat="45.88269829975798" lon="11.601838016432941"><ele>1052.0</ele><time>2026-03-24T07:29:24.979Z</time></trkpt><trkpt lat="45.88262044707962" lon="11.601818201741965"><ele>1053.0</ele><time>2026-03-24T07:29:29.979Z</time></trkpt><trkpt lat="45.88254415467337" lon="11.601826262810631"><ele>1054.0</ele><time>2026-03-24T07:29:34.979Z</time></trkpt><trkpt lat="45.882473680216876" lon="11.60183492236044"><ele>1055.0</ele><time>2026-03-24T07:29:39.979Z</time></trkpt><trkpt lat="45.88241019801224" lon="11.601825174626747"><ele>1056.0</ele><time>2026-03-24T07:29:43.979Z</time></trkpt><trkpt lat="45.8823294061172" lon="11.601824892525439"><ele>1056.4285714285713</ele><time>2026-03-24T07:29:48.979Z</time></trkpt><trkpt lat="45.882255875609424" lon="11.601833211562008"><ele>1056.857142857143</ele><time>2026-03-24T07:29:53.978Z</time></trkpt><trkpt lat="45.882188503621755" lon="11.601851405866872"><ele>1057.2857142857142</ele><time>2026-03-24T07:29:58.978Z</time></trkpt><trkpt lat="45.882122046636574" lon="11.601856041943089"><ele>1057.7142857142858</ele><time>2026-03-24T07:30:07.978Z</time></trkpt><trkpt lat="45.88204124205748" lon="11.601859031261752"><ele>1058.142857142857</ele><time>2026-03-24T07:30:12.978Z</time></trkpt><trkpt lat="45.88196523340941" lon="11.60185562129893"><ele>1058.5714285714284</ele><time>2026-03-24T07:30:17.978Z</time></trkpt><trkpt lat="45.881897533096875" lon="11.601843165435671"><ele>1059.0</ele><time>2026-03-24T07:30:22.978Z</time></trkpt><trkpt lat="45.88182918064515" lon="11.601830501702937"><ele>1059.857142857143</ele><time>2026-03-24T07:30:27.978Z</time></trkpt><trkpt lat="45.88176300816526" lon="11.601818205916762"><ele>1060.7142857142856</ele><time>2026-03-24T07:30:32.979Z</time></trkpt><trkpt lat="45.881695336256485" lon="11.60180454977081"><ele>1061.5714285714284</ele><time>2026-03-24T07:30:37.979Z</time></trkpt><trkpt lat="45.88162668742435" lon="11.601791992004927"><ele>1062.4285714285713</ele><time>2026-03-24T07:30:42.98Z</time></trkpt><trkpt lat="45.88154635761752" lon="11.601752456780737"><ele>1063.2857142857142</ele><time>2026-03-24T07:30:49.979Z</time></trkpt><trkpt lat="45.88147164441118" lon="11.601716505859025"><ele>1064.142857142857</ele><time>2026-03-24T07:30:55.979Z</time></trkpt><trkpt lat="45.8814052414337" lon="11.601669957686342"><ele>1065.0</ele><time>2026-03-24T07:31:00.979Z</time></trkpt><trkpt lat="45.88134614239057" lon="11.60163390255253"><ele>1065.0</ele><time>2026-03-24T07:31:05.978Z</time></trkpt><trkpt lat="45.88128577394051" lon="11.601582864898285"><ele>1065.0</ele><time>2026-03-24T07:31:10.978Z</time></trkpt><trkpt lat="45.88123345171347" lon="11.601520393968872"><ele>1065.0</ele><time>2026-03-24T07:31:15.978Z</time></trkpt><trkpt lat="45.881178751655334" lon="11.601439969536433"><ele>1065.0</ele><time>2026-03-24T07:31:20.978Z</time></trkpt><trkpt lat="45.881124350336876" lon="11.601381612708806"><ele>1065.0</ele><time>2026-03-24T07:31:25.978Z</time></trkpt><trkpt lat="45.88107707152746" lon="11.601301529228223"><ele>1065.0</ele><time>2026-03-24T07:31:30.978Z</time></trkpt><trkpt lat="45.881032046254894" lon="11.601238125389003"><ele>1065.0</ele><time>2026-03-24T07:31:35.978Z</time></trkpt><trkpt lat="45.88097831991647" lon="11.601167575989408"><ele>1066.7142857142858</ele><time>2026-03-24T07:31:40.978Z</time></trkpt><trkpt lat="45.880930202837654" lon="11.601091977488306"><ele>1068.4285714285713</ele><time>2026-03-24T07:31:45.978Z</time></trkpt><trkpt lat="45.88088305998883" lon="11.601023453011743"><ele>1070.142857142857</ele><time>2026-03-24T07:31:50.978Z</time></trkpt><trkpt lat="45.88083491310126" lon="11.600946636723586"><ele>1071.857142857143</ele><time>2026-03-24T07:31:55.978Z</time></trkpt><trkpt lat="45.88078216208882" lon="11.600882349759505"><ele>1073.5714285714287</ele><time>2026-03-24T07:32:00.978Z</time></trkpt><trkpt lat="45.88072938696862" lon="11.600822838127034"><ele>1075.2857142857142</ele><time>2026-03-24T07:32:05.978Z</time></trkpt><trkpt lat="45.88065805860006" lon="11.60082057112164"><ele>1077.0</ele><time>2026-03-24T07:32:11.978Z</time></trkpt><trkpt lat="45.88058744941125" lon="11.600816481755391"><ele>1077.0</ele><time>2026-03-24T07:32:17.978Z</time></trkpt><trkpt lat="45.88051810525257" lon="11.600827657253257"><ele>1077.0</ele><time>2026-03-24T07:32:22.977Z</time></trkpt><trkpt lat="45.88044185461245" lon="11.600839472843255"><ele>1077.0</ele><time>2026-03-24T07:32:27.977Z</time></trkpt><trkpt lat="45.88037827142172" lon="11.60082685801306"><ele>1077.0</ele><time>2026-03-24T07:32:32.977Z</time></trkpt><trkpt lat="45.880302183439056" lon="11.600819101770524"><ele>1077.0</ele><time>2026-03-24T07:32:38.979Z</time></trkpt><trkpt lat="45.880229304210225" lon="11.600800730388084"><ele>1077.0</ele><time>2026-03-24T07:32:44.979Z</time></trkpt><trkpt lat="45.88016784980444" lon="11.600755660208156"><ele>1077.0</ele><time>2026-03-24T07:32:49.979Z</time></trkpt><trkpt lat="45.88010513596714" lon="11.600732464635817"><ele>1077.7142857142858</ele><time>2026-03-24T07:32:54.978Z</time></trkpt><trkpt lat="45.88003743312316" lon="11.600722731228801"><ele>1078.4285714285716</ele><time>2026-03-24T07:32:59.978Z</time></trkpt><trkpt lat="45.87997104692716" lon="11.600713152735791"><ele>1079.1428571428573</ele><time>2026-03-24T07:33:04.978Z</time></trkpt><trkpt lat="45.87990384032059" lon="11.600726810460232"><ele>1079.857142857143</ele><time>2026-03-24T07:33:09.978Z</time></trkpt><trkpt lat="45.87983305437087" lon="11.60074850439309"><ele>1080.5714285714287</ele><time>2026-03-24T07:33:14.978Z</time></trkpt><trkpt lat="45.879763993291036" lon="11.600777718755293"><ele>1081.2857142857144</ele><time>2026-03-24T07:33:19.978Z</time></trkpt><trkpt lat="45.87970061228464" lon="11.600783177247173"><ele>1082.0</ele><time>2026-03-24T07:33:23.978Z</time></trkpt><trkpt lat="45.87962525889038" lon="11.600799597314989"><ele>1082.0000000000002</ele><time>2026-03-24T07:33:27.978Z</time></trkpt><trkpt lat="45.87955889077311" lon="11.600765724237801"><ele>1082.0</ele><time>2026-03-24T07:33:38.978Z</time></trkpt><trkpt lat="45.879485025990306" lon="11.600759861581743"><ele>1082.0</ele><time>2026-03-24T07:33:42.978Z</time></trkpt><trkpt lat="45.8794023767217" lon="11.600758417930749"><ele>1082.0</ele><time>2026-03-24T07:33:45.978Z</time></trkpt><trkpt lat="45.87933815743359" lon="11.600750691101641"><ele>1082.0</ele><time>2026-03-24T07:33:50.978Z</time></trkpt><trkpt lat="45.87927038478452" lon="11.600727639071929"><ele>1082.0000000000002</ele><time>2026-03-24T07:33:56.978Z</time></trkpt><trkpt lat="45.879207909264224" lon="11.600698209070858"><ele>1082.0</ele><time>2026-03-24T07:34:02.977Z</time></trkpt><trkpt lat="45.87914321952734" lon="11.600669092021086"><ele>1082.2857142857144</ele><time>2026-03-24T07:34:08.977Z</time></trkpt><trkpt lat="45.87907708638296" lon="11.600659756692224"><ele>1082.5714285714287</ele><time>2026-03-24T07:34:16.977Z</time></trkpt><trkpt lat="45.87900900321906" lon="11.600642177405152"><ele>1082.857142857143</ele><time>2026-03-24T07:34:25.977Z</time></trkpt><trkpt lat="45.87894467356826" lon="11.600633890311189"><ele>1083.1428571428573</ele><time>2026-03-24T07:34:33.977Z</time></trkpt><trkpt lat="45.87888566085788" lon="11.600567032029419"><ele>1083.4285714285716</ele><time>2026-03-24T07:34:39.977Z</time></trkpt><trkpt lat="45.87882664842583" lon="11.600509702921057"><ele>1083.7142857142858</ele><time>2026-03-24T07:34:46.979Z</time></trkpt><trkpt lat="45.87877349022238" lon="11.600445525420962"><ele>1084.0</ele><time>2026-03-24T07:34:52.979Z</time></trkpt><trkpt lat="45.87870084067498" lon="11.600397751198232"><ele>1084.0</ele><time>2026-03-24T07:34:58.978Z</time></trkpt><trkpt lat="45.87864148892501" lon="11.600346219538265"><ele>1084.0</ele><time>2026-03-24T07:35:04.978Z</time></trkpt><trkpt lat="45.87857709554878" lon="11.600307659791982"><ele>1084.0</ele><time>2026-03-24T07:35:09.978Z</time></trkpt><trkpt lat="45.878512259355865" lon="11.600310388643004"><ele>1084.0</ele><time>2026-03-24T07:35:16.978Z</time></trkpt><trkpt lat="45.878448384560976" lon="11.600303373183015"><ele>1084.0</ele><time>2026-03-24T07:35:22.978Z</time></trkpt><trkpt lat="45.878389759287586" lon="11.60025667001882"><ele>1084.0</ele><time>2026-03-24T07:35:28.978Z</time></trkpt><trkpt lat="45.87832183927973" lon="11.600234661302808"><ele>1084.0</ele><time>2026-03-24T07:35:37.978Z</time></trkpt><trkpt lat="45.87825834887007" lon="11.60022020247825"><ele>1085.7142857142858</ele><time>2026-03-24T07:35:48.978Z</time></trkpt><trkpt lat="45.87819424098473" lon="11.600227171682802"><ele>1087.4285714285716</ele><time>2026-03-24T07:36:02.978Z</time></trkpt><trkpt lat="45.878159363951305" lon="11.600317211143187"><ele>1089.1428571428573</ele><time>2026-03-24T07:36:07.978Z</time></trkpt><trkpt lat="45.878105497468624" lon="11.60036727005439"><ele>1090.857142857143</ele><time>2026-03-24T07:36:12.977Z</time></trkpt><trkpt lat="45.87805325708621" lon="11.600421722450431"><ele>1092.5714285714287</ele><time>2026-03-24T07:36:21.977Z</time></trkpt><trkpt lat="45.878029155287656" lon="11.60050835976647"><ele>1094.2857142857144</ele><time>2026-03-24T07:36:28.977Z</time></trkpt><trkpt lat="45.87800701382062" lon="11.600602251882407"><ele>1096.0</ele><time>2026-03-24T07:36:34.977Z</time></trkpt><trkpt lat="45.87798133074761" lon="11.600690116281058"><ele>1096.0000000000002</ele><time>2026-03-24T07:36:43.977Z</time></trkpt><trkpt lat="45.8779236527234" lon="11.60073373806733"><ele>1096.0</ele><time>2026-03-24T07:36:50.978Z</time></trkpt><trkpt lat="45.877878279538976" lon="11.600805221975643"><ele>1096.0</ele><time>2026-03-24T07:37:00.978Z</time></trkpt><trkpt lat="45.87784791250685" lon="11.600900053332365"><ele>1096.0</ele><time>2026-03-24T07:37:07.978Z</time></trkpt><trkpt lat="45.87781527356677" lon="11.600991303603722"><ele>1096.0</ele><time>2026-03-24T07:37:17.978Z</time></trkpt><trkpt lat="45.877728948946405" lon="11.60103720405146"><ele>1096.0000000000002</ele><time>2026-03-24T07:37:45.978Z</time></trkpt><trkpt lat="45.87766352782144" lon="11.601104138579013"><ele>1096.0</ele><time>2026-03-24T07:37:54.977Z</time></trkpt><trkpt lat="45.87764936623343" lon="11.600991149123868"><ele>1096.0</ele><time>2026-03-24T07:38:21.977Z</time></trkpt><trkpt lat="45.87766857417" lon="11.600898847285197"><ele>1096.0</ele><time>2026-03-24T07:38:29.977Z</time></trkpt><trkpt lat="45.877575876740245" lon="11.60082935946753"><ele>1096.0</ele><time>2026-03-24T07:39:31.981Z</time></trkpt><trkpt lat="45.87768034175789" lon="11.600850970713147"><ele>1096.0</ele><time>2026-03-24T07:40:39.981Z</time></trkpt><trkpt lat="45.87759485253814" lon="11.600859846781955"><ele>1096.0</ele><time>2026-03-24T07:42:58.98Z</time></trkpt><trkpt lat="45.87753293692852" lon="11.600839929960575"><ele>1096.0</ele><time>2026-03-24T07:43:27.981Z</time></trkpt><trkpt lat="45.87761253213362" lon="11.60079493637075"><ele>1096.0</ele><time>2026-03-24T07:43:40.981Z</time></trkpt><trkpt lat="45.87755538985183" lon="11.600926607831832"><ele>1096.0</ele><time>2026-03-24T07:44:41.98Z</time></trkpt><trkpt lat="45.877511950466385" lon="11.600848957183166"><ele>1096.0</ele><time>2026-03-24T07:45:07.98Z</time></trkpt><trkpt lat="45.8775799838377" lon="11.60083214460757"><ele>1096.0</ele><time>2026-03-24T07:45:28.981Z</time></trkpt><trkpt lat="45.87762297722781" lon="11.600910089489352"><ele>1096.0</ele><time>2026-03-24T07:45:48.98Z</time></trkpt><trkpt lat="45.8775981919748" lon="11.600790511084227"><ele>1096.0</ele><time>2026-03-24T07:46:15.98Z</time></trkpt><trkpt lat="45.87753170129325" lon="11.600747162976242"><ele>1103.0</ele><time>2026-03-24T07:46:53.98Z</time></trkpt><trkpt lat="45.87743996655909" lon="11.600688578626999"><ele>1110.0</ele><time>2026-03-24T07:47:06.979Z</time></trkpt><trkpt lat="45.87729327372199" lon="11.600562303215439"><ele>1117.0</ele><time>2026-03-24T07:47:21.981Z</time></trkpt><trkpt lat="45.87736796306061" lon="11.60069450623115"><ele>1124.0</ele><time>2026-03-24T07:47:38.981Z</time></trkpt><trkpt lat="45.87742648588132" lon="11.600797779377302"><ele>1124.0000000000002</ele><time>2026-03-24T07:47:39.981Z</time></trkpt><trkpt lat="45.87747922159355" lon="11.600865770371335"><ele>1124.0</ele><time>2026-03-24T07:47:44.98Z</time></trkpt><trkpt lat="45.87753992178704" lon="11.600805666484415"><ele>1124.0</ele><time>2026-03-24T07:47:47.98Z</time></trkpt><trkpt lat="45.87760558789435" lon="11.60074134117857"><ele>1124.0</ele><time>2026-03-24T07:47:49.98Z</time></trkpt><trkpt lat="45.877567140829576" lon="11.600814030066958"><ele>1124.0</ele><time>2026-03-24T07:48:08.98Z</time></trkpt><trkpt lat="45.87753910553109" lon="11.600895111648677"><ele>1124.0000000000002</ele><time>2026-03-24T07:48:22.98Z</time></trkpt><trkpt lat="45.877490818107326" lon="11.600974720058211"><ele>1124.0</ele><time>2026-03-24T07:48:46.98Z</time></trkpt><trkpt lat="45.8775379214845" lon="11.600909947542391"><ele>1124.0</ele><time>2026-03-24T07:50:39.98Z</time></trkpt><trkpt lat="45.87759597818961" lon="11.600840970710308"><ele>1124.0</ele><time>2026-03-24T07:51:23.979Z</time></trkpt><trkpt lat="45.877664474511825" lon="11.600805258158644"><ele>1124.0</ele><time>2026-03-24T07:51:34.98Z</time></trkpt><trkpt lat="45.877621688051924" lon="11.600678009172242"><ele>1124.0</ele><time>2026-03-24T07:52:14.98Z</time></trkpt><trkpt lat="45.87754705238776" lon="11.600671633951226"><ele>1124.0</ele><time>2026-03-24T07:52:26.979Z</time></trkpt><trkpt lat="45.87750278189243" lon="11.600753552649147"><ele>1124.0</ele><time>2026-03-24T07:53:19.979Z</time></trkpt><trkpt lat="45.87745532084048" lon="11.600688515289743"><ele>1124.0000000000002</ele><time>2026-03-24T07:53:27.979Z</time></trkpt><trkpt lat="45.87746128763348" lon="11.600596899035812"><ele>1124.0</ele><time>2026-03-24T07:53:35.979Z</time></trkpt><trkpt lat="45.877454713076936" lon="11.6004898333066"><ele>1124.0</ele><time>2026-03-24T07:53:48.98Z</time></trkpt><trkpt lat="45.8775075616461" lon="11.600440095977934"><ele>1124.0</ele><time>2026-03-24T07:54:56.98Z</time></trkpt><trkpt lat="45.87744868113551" lon="11.60039637712129"><ele>1124.0</ele><time>2026-03-24T07:55:52.98Z</time></trkpt><trkpt lat="45.87743566023978" lon="11.60049343215512"><ele>1124.0000000000002</ele><time>2026-03-24T07:56:03.98Z</time></trkpt><trkpt lat="45.87737510131886" lon="11.600586406513697"><ele>1124.0</ele><time>2026-03-24T07:56:32.98Z</time></trkpt><trkpt lat="45.877309880576625" lon="11.600605450190402"><ele>1124.0</ele><time>2026-03-24T07:56:48.979Z</time></trkpt><trkpt lat="45.87729393807089" lon="11.6005154987627"><ele>1124.0</ele><time>2026-03-24T07:57:02.979Z</time></trkpt><trkpt lat="45.87723173110461" lon="11.600596474471008"><ele>1124.0</ele><time>2026-03-24T07:57:33.979Z</time></trkpt><trkpt lat="45.87717884068173" lon="11.600658319849137"><ele>1124.0</ele><time>2026-03-24T07:57:41.979Z</time></trkpt><trkpt lat="45.877115933031554" lon="11.60066958198188"><ele>1124.0</ele><time>2026-03-24T07:57:50.979Z</time></trkpt><trkpt lat="45.87704185573834" lon="11.600639322269567"><ele>1124.0</ele><time>2026-03-24T07:58:06.979Z</time></trkpt><trkpt lat="45.87694418552863" lon="11.60066356688258"><ele>1124.0</ele><time>2026-03-24T07:58:29.979Z</time></trkpt><trkpt lat="45.87687749450879" lon="11.600628246035717"><ele>1124.0</ele><time>2026-03-24T07:58:41.979Z</time></trkpt><trkpt lat="45.876812185430566" lon="11.600567560866551"><ele>1124.0</ele><time>2026-03-24T07:59:04.979Z</time></trkpt><trkpt lat="45.87690675516777" lon="11.600512415321765"><ele>1124.0</ele><time>2026-03-24T07:59:25.979Z</time></trkpt><trkpt lat="45.87690781427542" lon="11.600421694913898"><ele>1124.0</ele><time>2026-03-24T07:59:42.979Z</time></trkpt><trkpt lat="45.876839037902734" lon="11.600411670352532"><ele>1124.0</ele><time>2026-03-24T07:59:59.98Z</time></trkpt><trkpt lat="45.876760588901185" lon="11.60038522093423"><ele>1126.1666666666667</ele><time>2026-03-24T08:00:15.98Z</time></trkpt><trkpt lat="45.87667967445724" lon="11.600375276262533"><ele>1128.3333333333335</ele><time>2026-03-24T08:00:30.98Z</time></trkpt><trkpt lat="45.87669850744315" lon="11.60025010823853"><ele>1130.5</ele><time>2026-03-24T08:00:47.98Z</time></trkpt><trkpt lat="45.87664112133015" lon="11.600195783820626"><ele>1132.6666666666667</ele><time>2026-03-24T08:01:03.979Z</time></trkpt><trkpt lat="45.87657689653184" lon="11.600194497490902"><ele>1134.8333333333333</ele><time>2026-03-24T08:01:09.979Z</time></trkpt><trkpt lat="45.876508646736845" lon="11.600135789071789"><ele>1137.0</ele><time>2026-03-24T08:01:15.979Z</time></trkpt><trkpt lat="45.876437545743215" lon="11.600120638827786"><ele>1141.8333333333333</ele><time>2026-03-24T08:01:22.979Z</time></trkpt><trkpt lat="45.876374222359324" lon="11.600086675432316"><ele>1146.6666666666667</ele><time>2026-03-24T08:01:29.979Z</time></trkpt><trkpt lat="45.876311156353324" lon="11.600042764205352"><ele>1151.5</ele><time>2026-03-24T08:01:36.979Z</time></trkpt><trkpt lat="45.87620921303677" lon="11.600088865000664"><ele>1156.3333333333335</ele><time>2026-03-24T08:02:05.98Z</time></trkpt><trkpt lat="45.87612974717963" lon="11.60011125419286"><ele>1161.1666666666667</ele><time>2026-03-24T08:02:46.98Z</time></trkpt><trkpt lat="45.876164817992866" lon="11.600021746054253"><ele>1166.0</ele><time>2026-03-24T08:02:57.979Z</time></trkpt><trkpt lat="45.87623652452484" lon="11.599947026198876"><ele>1166.0000000000002</ele><time>2026-03-24T08:03:11.979Z</time></trkpt><trkpt lat="45.87624426004602" lon="11.60004136484265"><ele>1166.0</ele><time>2026-03-24T08:03:21.979Z</time></trkpt><trkpt lat="45.87626149569464" lon="11.600147722142118"><ele>1166.0</ele><time>2026-03-24T08:03:35.979Z</time></trkpt><trkpt lat="45.87626485441345" lon="11.600271362405081"><ele>1166.0</ele><time>2026-03-24T08:03:54.979Z</time></trkpt><trkpt lat="45.876336083021265" lon="11.600317186072955"><ele>1166.0</ele><time>2026-03-24T08:05:07.979Z</time></trkpt><trkpt lat="45.876293064878006" lon="11.600404686828634"><ele>1166.0000000000002</ele><time>2026-03-24T08:06:10.978Z</time></trkpt><trkpt lat="45.876245232650014" lon="11.600343787855772"><ele>1166.0</ele><time>2026-03-24T08:07:00.979Z</time></trkpt><trkpt lat="45.87627146830566" lon="11.600436014565592"><ele>1161.1666666666667</ele><time>2026-03-24T08:09:41.978Z</time></trkpt><trkpt lat="45.876348672528316" lon="11.600427820119842"><ele>1156.3333333333335</ele><time>2026-03-24T08:10:13.977Z</time></trkpt><trkpt lat="45.87641680508627" lon="11.600346983238545"><ele>1151.5</ele><time>2026-03-24T08:11:13.977Z</time></trkpt><trkpt lat="45.87639468606319" lon="11.600432122214709"><ele>1146.6666666666667</ele><time>2026-03-24T08:11:34.977Z</time></trkpt><trkpt lat="45.87632255354456" lon="11.600442188541464"><ele>1141.8333333333333</ele><time>2026-03-24T08:11:57.976Z</time></trkpt><trkpt lat="45.87627565570473" lon="11.600569162122303"><ele>1137.0</ele><time>2026-03-24T08:13:37.976Z</time></trkpt><trkpt lat="45.87627433267669" lon="11.600469848578506"><ele>1137.0</ele><time>2026-03-24T08:14:04.976Z</time></trkpt><trkpt lat="45.87635472812291" lon="11.600412447412191"><ele>1137.0</ele><time>2026-03-24T08:14:59.977Z</time></trkpt><trkpt lat="45.87631789515751" lon="11.600323680286639"><ele>1137.0</ele><time>2026-03-24T08:15:28.977Z</time></trkpt><trkpt lat="45.87636141387815" lon="11.600257929678078"><ele>1137.0</ele><time>2026-03-24T08:15:35.977Z</time></trkpt><trkpt lat="45.87638541080423" lon="11.600406869524585"><ele>1137.0</ele><time>2026-03-24T08:16:03.976Z</time></trkpt><trkpt lat="45.87631673872475" lon="11.600489978098361"><ele>1137.0</ele><time>2026-03-24T08:18:10.975Z</time></trkpt><trkpt lat="45.87630935553805" lon="11.600392351880854"><ele>1136.9999999999998</ele><time>2026-03-24T08:21:19.978Z</time></trkpt><trkpt lat="45.87626385559783" lon="11.600473266158172"><ele>1137.0</ele><time>2026-03-24T08:24:16.978Z</time></trkpt><trkpt lat="45.8762560618563" lon="11.600372839722153"><ele>1137.0</ele><time>2026-03-24T08:25:04.978Z</time></trkpt><trkpt lat="45.876328872247896" lon="11.60038776412802"><ele>1137.0</ele><time>2026-03-24T08:26:53.977Z</time></trkpt><trkpt lat="45.876321652735164" lon="11.600495829716476"><ele>1137.0</ele><time>2026-03-24T08:28:11.977Z</time></trkpt><trkpt lat="45.87627486703286" lon="11.600432583826327"><ele>1136.9999999999998</ele><time>2026-03-24T08:28:21.977Z</time></trkpt><trkpt lat="45.876338152620264" lon="11.600452784740497"><ele>1137.0</ele><time>2026-03-24T08:28:34.977Z</time></trkpt><trkpt lat="45.876312422940046" lon="11.600361702852046"><ele>1137.0</ele><time>2026-03-24T08:29:12.976Z</time></trkpt><trkpt lat="45.87637909266945" lon="11.600375923996632"><ele>1137.0</ele><time>2026-03-24T08:29:30.978Z</time></trkpt><trkpt lat="45.876315837445894" lon="11.600364072076903"><ele>1137.0</ele><time>2026-03-24T08:31:11.977Z</time></trkpt><trkpt lat="45.87637142327806" lon="11.600309759096552"><ele>1137.0</ele><time>2026-03-24T08:31:23.977Z</time></trkpt><trkpt lat="45.876480250299245" lon="11.60047258425324"><ele>1137.0</ele><time>2026-03-24T08:32:23.977Z</time></trkpt><trkpt lat="45.87653347567877" lon="11.600419273830441"><ele>1137.0</ele><time>2026-03-24T08:37:04.976Z</time></trkpt><trkpt lat="45.87647081146912" lon="11.600448896691807"><ele>1136.9999999999998</ele><time>2026-03-24T08:37:43.977Z</time></trkpt><trkpt lat="45.87653550758861" lon="11.600444784461763"><ele>1137.0</ele><time>2026-03-24T08:37:55.977Z</time></trkpt><trkpt lat="45.876503888817155" lon="11.60036653330709"><ele>1137.0</ele><time>2026-03-24T08:38:23.977Z</time></trkpt><trkpt lat="45.8765153991889" lon="11.600457919485706"><ele>1137.0</ele><time>2026-03-24T08:39:20.978Z</time></trkpt><trkpt lat="45.87645655210055" lon="11.600382611330412"><ele>1137.0</ele><time>2026-03-24T08:39:33.978Z</time></trkpt><trkpt lat="45.87641390529768" lon="11.600454122785326"><ele>1136.9999999999998</ele><time>2026-03-24T08:40:41.979Z</time></trkpt><trkpt lat="45.87634559884291" lon="11.60038940301731"><ele>1137.0</ele><time>2026-03-24T08:41:12.979Z</time></trkpt><trkpt lat="45.87630792891797" lon="11.600537579929746"><ele>1137.0</ele><time>2026-03-24T08:41:35.978Z</time></trkpt><trkpt lat="45.876306848484084" lon="11.600653505812216"><ele>1137.0</ele><time>2026-03-24T08:41:57.979Z</time></trkpt><trkpt lat="45.87633357960596" lon="11.600567109741121"><ele>1137.0</ele><time>2026-03-24T08:42:14.979Z</time></trkpt><trkpt lat="45.8763426099076" lon="11.60046691238288"><ele>1137.0</ele><time>2026-03-24T08:42:20.979Z</time></trkpt><trkpt lat="45.87640990405509" lon="11.600371325429892"><ele>1137.0</ele><time>2026-03-24T08:42:37.979Z</time></trkpt><trkpt lat="45.876339344897" lon="11.60049007051327"><ele>1137.0</ele><time>2026-03-24T08:43:18.978Z</time></trkpt><trkpt lat="45.8763844154726" lon="11.60056589819988"><ele>1136.9999999999998</ele><time>2026-03-24T08:44:18.978Z</time></trkpt><trkpt lat="45.87644459572705" lon="11.600534087336495"><ele>1137.0</ele><time>2026-03-24T08:44:40.977Z</time></trkpt><trkpt lat="45.87651440266819" lon="11.600528338801897"><ele>1137.0</ele><time>2026-03-24T08:45:06.977Z</time></trkpt><trkpt lat="45.87659779333532" lon="11.60046771194342"><ele>1137.0</ele><time>2026-03-24T08:45:52.977Z</time></trkpt><trkpt lat="45.876529122093906" lon="11.600513693360726"><ele>1137.0</ele><time>2026-03-24T08:46:12.978Z</time></trkpt><trkpt lat="45.8764712708167" lon="11.600554807370894"><ele>1136.9999999999998</ele><time>2026-03-24T08:46:29.978Z</time></trkpt><trkpt lat="45.876455665394985" lon="11.600649023768728"><ele>1137.0</ele><time>2026-03-24T08:46:47.978Z</time></trkpt><trkpt lat="45.87639526410241" lon="11.600692924173972"><ele>1136.9999999999998</ele><time>2026-03-24T08:47:37.977Z</time></trkpt><trkpt lat="45.87642060957098" lon="11.60060929790645"><ele>1137.0</ele><time>2026-03-24T08:48:11.978Z</time></trkpt><trkpt lat="45.87646863861814" lon="11.60067726490006"><ele>1137.0</ele><time>2026-03-24T08:49:20.978Z</time></trkpt><trkpt lat="45.87646007299607" lon="11.600579246839255"><ele>1137.0</ele><time>2026-03-24T08:49:49.978Z</time></trkpt><trkpt lat="45.87649603883697" lon="11.600502402584326"><ele>1137.0</ele><time>2026-03-24T08:50:00.978Z</time></trkpt><trkpt lat="45.87643291084043" lon="11.600533384624718"><ele>1136.9999999999998</ele><time>2026-03-24T08:50:33.979Z</time></trkpt><trkpt lat="45.8763635814879" lon="11.600579685518012"><ele>1137.0</ele><time>2026-03-24T08:51:25.978Z</time></trkpt><trkpt lat="45.87630886230692" lon="11.600497640044614"><ele>1137.0</ele><time>2026-03-24T08:52:07.978Z</time></trkpt><trkpt lat="45.87633172695775" lon="11.600386811852593"><ele>1137.0</ele><time>2026-03-24T08:52:45.979Z</time></trkpt><trkpt lat="45.876351624549" lon="11.600510282900668"><ele>1137.0</ele><time>2026-03-24T08:52:58.978Z</time></trkpt><trkpt lat="45.87628840207294" lon="11.600616233632843"><ele>1137.0</ele><time>2026-03-24T08:53:47.978Z</time></trkpt><trkpt lat="45.87635280285611" lon="11.60056598824866"><ele>1137.0</ele><time>2026-03-24T08:54:00.978Z</time></trkpt><trkpt lat="45.87628663268674" lon="11.600527011012035"><ele>1137.0</ele><time>2026-03-24T08:54:52.978Z</time></trkpt><trkpt lat="45.87636445187402" lon="11.600498330156487"><ele>1137.0</ele><time>2026-03-24T08:56:38.977Z</time></trkpt><trkpt lat="45.87626328753564" lon="11.600509088855922"><ele>1137.0</ele><time>2026-03-24T08:57:51.977Z</time></trkpt><trkpt lat="45.876340519509256" lon="11.600505773735756"><ele>1137.0</ele><time>2026-03-24T09:00:54.978Z</time></trkpt><trkpt lat="45.87627541411466" lon="11.600487863665244"><ele>1137.0</ele><time>2026-03-24T09:01:40.98Z</time></trkpt><trkpt lat="45.87634772144887" lon="11.600449955076824"><ele>1137.0</ele><time>2026-03-24T09:02:19.98Z</time></trkpt><trkpt lat="45.87640899512372" lon="11.600471494232142"><ele>1137.0</ele><time>2026-03-24T09:02:37.98Z</time></trkpt><trkpt lat="45.87634007735242" lon="11.600378851263395"><ele>1137.0</ele><time>2026-03-24T09:04:03.98Z</time></trkpt><trkpt lat="45.8762194061294" lon="11.600369077744517"><ele>1137.0</ele><time>2026-03-24T09:06:12.98Z</time></trkpt><trkpt lat="45.87632955136459" lon="11.600364095123856"><ele>1137.0</ele><time>2026-03-24T09:06:59.979Z</time></trkpt><trkpt lat="45.87626527853833" lon="11.60036768157676"><ele>1137.0</ele><time>2026-03-24T09:07:38.981Z</time></trkpt><trkpt lat="45.87620201617631" lon="11.600400261071513"><ele>1137.0</ele><time>2026-03-24T09:08:16.98Z</time></trkpt><trkpt lat="45.87626129070048" lon="11.600443007467092"><ele>1137.0</ele><time>2026-03-24T09:08:43.98Z</time></trkpt><trkpt lat="45.8763185758133" lon="11.600394490829697"><ele>1137.0</ele><time>2026-03-24T09:08:49.98Z</time></trkpt><trkpt lat="45.87637921596164" lon="11.600356500691477"><ele>1137.0</ele><time>2026-03-24T09:09:11.98Z</time></trkpt><trkpt lat="45.87639131068001" lon="11.600264685562598"><ele>1137.0</ele><time>2026-03-24T09:10:00.98Z</time></trkpt><trkpt lat="45.87631854322982" lon="11.600274042234057"><ele>1137.0</ele><time>2026-03-24T09:10:23.98Z</time></trkpt><trkpt lat="45.87626352315887" lon="11.60032122819115"><ele>1137.0</ele><time>2026-03-24T09:10:27.98Z</time></trkpt><trkpt lat="45.87622257957561" lon="11.600252465402876"><ele>1137.0</ele><time>2026-03-24T09:10:56.979Z</time></trkpt><trkpt lat="45.87634065860332" lon="11.600238865934706"><ele>1136.9999999999998</ele><time>2026-03-24T09:11:28.979Z</time></trkpt><trkpt lat="45.876421479294066" lon="11.600233539933505"><ele>1137.0</ele><time>2026-03-24T09:11:49.98Z</time></trkpt><trkpt lat="45.87637590795456" lon="11.6001573986305"><ele>1137.0</ele><time>2026-03-24T09:12:09.98Z</time></trkpt><trkpt lat="45.87631032138548" lon="11.600164346639604"><ele>1137.0</ele><time>2026-03-24T09:13:37.979Z</time></trkpt><trkpt lat="45.87634365853383" lon="11.600246296270923"><ele>1137.0</ele><time>2026-03-24T09:14:02.98Z</time></trkpt><trkpt lat="45.87637423489527" lon="11.600344389505393"><ele>1136.9999999999998</ele><time>2026-03-24T09:14:16.98Z</time></trkpt><trkpt lat="45.876365850754176" lon="11.600460150044034"><ele>1137.0</ele><time>2026-03-24T09:15:50.981Z</time></trkpt><trkpt lat="45.87631359798278" lon="11.600686612654421"><ele>1137.0</ele><time>2026-03-24T09:18:13.981Z</time></trkpt><trkpt lat="45.87640432812627" lon="11.600686494084792"><ele>1137.0</ele><time>2026-03-24T09:18:42.98Z</time></trkpt><trkpt lat="45.87642997680267" lon="11.60055366787796"><ele>1137.0</ele><time>2026-03-24T09:20:16.981Z</time></trkpt><trkpt lat="45.876516081012916" lon="11.60048773024481"><ele>1137.0</ele><time>2026-03-24T09:20:31.981Z</time></trkpt><trkpt lat="45.87646689569097" lon="11.6005687869842"><ele>1137.0</ele><time>2026-03-24T09:20:40.98Z</time></trkpt><trkpt lat="45.8764172961831" lon="11.600509255899036"><ele>1137.0</ele><time>2026-03-24T09:20:51.98Z</time></trkpt><trkpt lat="45.8764280440787" lon="11.600609951815231"><ele>1136.9999999999998</ele><time>2026-03-24T09:21:13.98Z</time></trkpt><trkpt lat="45.87650695584835" lon="11.600607399847231"><ele>1137.0</ele><time>2026-03-24T09:21:39.98Z</time></trkpt><trkpt lat="45.87645660477669" lon="11.60066272415768"><ele>1137.0</ele><time>2026-03-24T09:21:57.98Z</time></trkpt><trkpt lat="45.876463134626896" lon="11.600550419100928"><ele>1137.0</ele><time>2026-03-24T09:23:17.981Z</time></trkpt><trkpt lat="45.876488558050866" lon="11.600647531463206"><ele>1137.0</ele><time>2026-03-24T09:23:47.981Z</time></trkpt><trkpt lat="45.87650162356138" lon="11.600767381962873"><ele>1136.9999999999998</ele><time>2026-03-24T09:25:15.981Z</time></trkpt><trkpt lat="45.87651848425176" lon="11.600676753752888"><ele>1137.0</ele><time>2026-03-24T09:25:59.981Z</time></trkpt><trkpt lat="45.876576473128104" lon="11.60061698049189"><ele>1137.0</ele><time>2026-03-24T09:26:06.981Z</time></trkpt><trkpt lat="45.87649881079819" lon="11.600632836457164"><ele>1137.0</ele><time>2026-03-24T09:26:34.981Z</time></trkpt><trkpt lat="45.876568815118745" lon="11.600734029999897"><ele>1137.0</ele><time>2026-03-24T09:26:55.981Z</time></trkpt><trkpt lat="45.876473485351376" lon="11.600781488848265"><ele>1137.0</ele><time>2026-03-24T09:27:51.98Z</time></trkpt><trkpt lat="45.87654990878068" lon="11.600693047424079"><ele>1137.0</ele><time>2026-03-24T09:29:20.981Z</time></trkpt><trkpt lat="45.876627806801636" lon="11.600631093621141"><ele>1137.0</ele><time>2026-03-24T09:29:46.981Z</time></trkpt><trkpt lat="45.87654143981582" lon="11.600655577885577"><ele>1137.0</ele><time>2026-03-24T09:30:32.981Z</time></trkpt><trkpt lat="45.876612339947194" lon="11.600615699132433"><ele>1137.0</ele><time>2026-03-24T09:31:07.981Z</time></trkpt><trkpt lat="45.87654930696483" lon="11.600622173097307"><ele>1137.0</ele><time>2026-03-24T09:31:27.981Z</time></trkpt><trkpt lat="45.876511930751654" lon="11.600700445681904"><ele>1137.0</ele><time>2026-03-24T09:31:48.98Z</time></trkpt><trkpt lat="45.8765796760232" lon="11.60066823330722"><ele>1137.0</ele><time>2026-03-24T09:33:23.981Z</time></trkpt><trkpt lat="45.876543095286145" lon="11.600788054353513"><ele>1137.0</ele><time>2026-03-24T09:33:59.981Z</time></trkpt><trkpt lat="45.87654482775907" lon="11.600660150457161"><ele>1137.0</ele><time>2026-03-24T09:35:18.981Z</time></trkpt><trkpt lat="45.87662996825606" lon="11.600695417124252"><ele>1137.0</ele><time>2026-03-24T09:35:35.981Z</time></trkpt><trkpt lat="45.87655700947711" lon="11.60065480843242"><ele>1137.0</ele><time>2026-03-24T09:36:28.98Z</time></trkpt><trkpt lat="45.87663241860067" lon="11.60063531025014"><ele>1137.0</ele><time>2026-03-24T09:37:37.981Z</time></trkpt><trkpt lat="45.87656987163376" lon="11.600618293122743"><ele>1137.0</ele><time>2026-03-24T09:37:53.981Z</time></trkpt><trkpt lat="45.876632960207544" lon="11.600682236022788"><ele>1136.9999999999998</ele><time>2026-03-24T09:38:41.981Z</time></trkpt><trkpt lat="45.87657712662504" lon="11.600734812478738"><ele>1137.0</ele><time>2026-03-24T09:40:30.982Z</time></trkpt><trkpt lat="45.87655251085528" lon="11.60064945669172"><ele>1137.0</ele><time>2026-03-24T09:41:13.983Z</time></trkpt><trkpt lat="45.876482524142716" lon="11.60067164678742"><ele>1137.0</ele><time>2026-03-24T09:42:23.982Z</time></trkpt><trkpt lat="45.87647149863652" lon="11.60076211777695"><ele>1137.0</ele><time>2026-03-24T09:42:31.982Z</time></trkpt><trkpt lat="45.87656834814287" lon="11.600786370546196"><ele>1136.9999999999998</ele><time>2026-03-24T09:42:55.982Z</time></trkpt><trkpt lat="45.87655850711955" lon="11.600686445813022"><ele>1137.0</ele><time>2026-03-24T09:43:09.982Z</time></trkpt><trkpt lat="45.87667074129391" lon="11.600693828207197"><ele>1137.0</ele><time>2026-03-24T09:45:01.981Z</time></trkpt><trkpt lat="45.87660826725786" lon="11.600716296933285"><ele>1137.0</ele><time>2026-03-24T09:45:08.981Z</time></trkpt><trkpt lat="45.87650873827766" lon="11.600715400653085"><ele>1137.0</ele><time>2026-03-24T09:45:54.982Z</time></trkpt><trkpt lat="45.87652389709846" lon="11.600627014493547"><ele>1137.0</ele><time>2026-03-24T09:47:20.983Z</time></trkpt><trkpt lat="45.87645273919417" lon="11.600686251007804"><ele>1137.0</ele><time>2026-03-24T09:48:36.982Z</time></trkpt><trkpt lat="45.876541487515986" lon="11.600663185548834"><ele>1137.0</ele><time>2026-03-24T09:48:50.982Z</time></trkpt><trkpt lat="45.876572017306344" lon="11.60077465931657"><ele>1137.0</ele><time>2026-03-24T09:49:00.982Z</time></trkpt><trkpt lat="45.8765707540388" lon="11.600870296069802"><ele>1137.0</ele><time>2026-03-24T09:49:17.982Z</time></trkpt><trkpt lat="45.87665719656403" lon="11.600823869918022"><ele>1137.0</ele><time>2026-03-24T09:51:49.983Z</time></trkpt><trkpt lat="45.87651292132829" lon="11.60080445355907"><ele>1137.0</ele><time>2026-03-24T09:54:57.981Z</time></trkpt><trkpt lat="45.87658142592724" lon="11.600856013293988"><ele>1137.0</ele><time>2026-03-24T09:55:41.983Z</time></trkpt><trkpt lat="45.876507115040376" lon="11.601055985567896"><ele>1137.0</ele><time>2026-03-24T09:55:56.983Z</time></trkpt><trkpt lat="45.876539552877304" lon="11.600844261050227"><ele>1137.0</ele><time>2026-03-24T09:55:58.983Z</time></trkpt><trkpt lat="45.87661556360207" lon="11.60085844829725"><ele>1137.0</ele><time>2026-03-24T09:56:53.983Z</time></trkpt><trkpt lat="45.87663059227587" lon="11.600947445204643"><ele>1137.0</ele><time>2026-03-24T09:57:21.983Z</time></trkpt><trkpt lat="45.876690803552165" lon="11.600861717294828"><ele>1137.0</ele><time>2026-03-24T09:58:03.983Z</time></trkpt><trkpt lat="45.87663229303239" lon="11.600929734794056"><ele>1136.9999999999998</ele><time>2026-03-24T09:58:25.983Z</time></trkpt><trkpt lat="45.87665134226436" lon="11.600838782533186"><ele>1137.0</ele><time>2026-03-24T09:58:49.982Z</time></trkpt><trkpt lat="45.8766417115047" lon="11.60092994916502"><ele>1137.0</ele><time>2026-03-24T09:59:19.983Z</time></trkpt><trkpt lat="45.87670279144575" lon="11.600907795268945"><ele>1137.0</ele><time>2026-03-24T09:59:36.984Z</time></trkpt><trkpt lat="45.8766949617036" lon="11.601003428756908"><ele>1137.0</ele><time>2026-03-24T10:01:43.983Z</time></trkpt><trkpt lat="45.876766532986196" lon="11.600955099440363"><ele>1136.9999999999998</ele><time>2026-03-24T10:03:05.982Z</time></trkpt><trkpt lat="45.876677285632965" lon="11.60101742813956"><ele>1137.0</ele><time>2026-03-24T10:03:45.983Z</time></trkpt><trkpt lat="45.87674364426018" lon="11.60096995971461"><ele>1135.142857142857</ele><time>2026-03-24T10:05:39.982Z</time></trkpt><trkpt lat="45.87678677375051" lon="11.601047318151574"><ele>1133.2857142857142</ele><time>2026-03-24T10:05:49.982Z</time></trkpt><trkpt lat="45.87683581617257" lon="11.601124171116647"><ele>1131.4285714285716</ele><time>2026-03-24T10:05:58.982Z</time></trkpt><trkpt lat="45.87689240720457" lon="11.601177611249359"><ele>1129.5714285714284</ele><time>2026-03-24T10:06:51.982Z</time></trkpt><trkpt lat="45.87695516596903" lon="11.601149198503798"><ele>1127.7142857142858</ele><time>2026-03-24T10:07:15.981Z</time></trkpt><trkpt lat="45.87705282135606" lon="11.60111567280711"><ele>1125.857142857143</ele><time>2026-03-24T10:07:42.983Z</time></trkpt><trkpt lat="45.87712432661951" lon="11.601130730103204"><ele>1124.0</ele><time>2026-03-24T10:07:55.983Z</time></trkpt><trkpt lat="45.87719063156877" lon="11.60111585728669"><ele>1124.0</ele><time>2026-03-24T10:08:02.983Z</time></trkpt><trkpt lat="45.87725863032457" lon="11.601114050322927"><ele>1124.0</ele><time>2026-03-24T10:08:18.983Z</time></trkpt><trkpt lat="45.87733778293794" lon="11.601085437139547"><ele>1124.0</ele><time>2026-03-24T10:09:15.982Z</time></trkpt><trkpt lat="45.877388216486224" lon="11.600951207546343"><ele>1124.0</ele><time>2026-03-24T10:09:29.982Z</time></trkpt><trkpt lat="45.877469182044784" lon="11.600844875978005"><ele>1124.0</ele><time>2026-03-24T10:09:54.982Z</time></trkpt><trkpt lat="45.8775177643575" lon="11.600773258857965"><ele>1124.0</ele><time>2026-03-24T10:10:02.982Z</time></trkpt><trkpt lat="45.87754427534823" lon="11.600690442080836"><ele>1124.0000000000002</ele><time>2026-03-24T10:10:08.982Z</time></trkpt><trkpt lat="45.87759973531632" lon="11.600640863375997"><ele>1124.0</ele><time>2026-03-24T10:10:17.982Z</time></trkpt><trkpt lat="45.877632108774655" lon="11.600557612523698"><ele>1124.0</ele><time>2026-03-24T10:10:25.982Z</time></trkpt><trkpt lat="45.87769524442346" lon="11.60054150737465"><ele>1124.0</ele><time>2026-03-24T10:10:39.982Z</time></trkpt><trkpt lat="45.87770206688675" lon="11.600446739968602"><ele>1124.0</ele><time>2026-03-24T10:11:00.982Z</time></trkpt><trkpt lat="45.87765197410596" lon="11.600388175562639"><ele>1124.0000000000002</ele><time>2026-03-24T10:11:13.982Z</time></trkpt><trkpt lat="45.87760622934048" lon="11.600319148801608"><ele>1124.0</ele><time>2026-03-24T10:11:27.981Z</time></trkpt><trkpt lat="45.877664747245724" lon="11.60038579288726"><ele>1123.2</ele><time>2026-03-24T10:12:00.983Z</time></trkpt><trkpt lat="45.87777409350408" lon="11.600306917961579"><ele>1122.4</ele><time>2026-03-24T10:12:18.983Z</time></trkpt><trkpt lat="45.87786825635379" lon="11.600260049404852"><ele>1121.6</ele><time>2026-03-24T10:12:44.983Z</time></trkpt><trkpt lat="45.87786474116221" lon="11.60013999801921"><ele>1120.8</ele><time>2026-03-24T10:13:01.982Z</time></trkpt><trkpt lat="45.87792165911881" lon="11.600086471206208"><ele>1120.0</ele><time>2026-03-24T10:13:16.982Z</time></trkpt><trkpt lat="45.8779546240015" lon="11.599982227769134"><ele>1120.0</ele><time>2026-03-24T10:13:32.982Z</time></trkpt><trkpt lat="45.8780183083668" lon="11.599892229810452"><ele>1120.0</ele><time>2026-03-24T10:13:53.983Z</time></trkpt><trkpt lat="45.87795210386626" lon="11.599920003828766"><ele>1120.0</ele><time>2026-03-24T10:16:16.983Z</time></trkpt><trkpt lat="45.87783242321851" lon="11.600042661083066"><ele>1120.0</ele><time>2026-03-24T10:16:59.982Z</time></trkpt><trkpt lat="45.87777991628755" lon="11.600094702581709"><ele>1120.0</ele><time>2026-03-24T10:17:12.982Z</time></trkpt><trkpt lat="45.87772406797096" lon="11.600145274287183"><ele>1120.0</ele><time>2026-03-24T10:17:20.982Z</time></trkpt><trkpt lat="45.877654940190936" lon="11.600128911584912"><ele>1120.0</ele><time>2026-03-24T10:17:38.982Z</time></trkpt><trkpt lat="45.87760616666107" lon="11.600069155978968"><ele>1120.0</ele><time>2026-03-24T10:17:53.982Z</time></trkpt><trkpt lat="45.87761916789276" lon="11.599975985319162"><ele>1120.0</ele><time>2026-03-24T10:18:01.982Z</time></trkpt><trkpt lat="45.87765845337737" lon="11.599897037171337"><ele>1120.0</ele><time>2026-03-24T10:18:12.983Z</time></trkpt><trkpt lat="45.87764825794389" lon="11.599804880614178"><ele>1120.0</ele><time>2026-03-24T10:18:23.982Z</time></trkpt><trkpt lat="45.87763097146229" lon="11.599713787756436"><ele>1120.0</ele><time>2026-03-24T10:18:37.982Z</time></trkpt><trkpt lat="45.87764250163881" lon="11.599623897786882"><ele>1120.0</ele><time>2026-03-24T10:18:47.982Z</time></trkpt><trkpt lat="45.877682108700576" lon="11.599543631019088"><ele>1124.5</ele><time>2026-03-24T10:18:54.982Z</time></trkpt><trkpt lat="45.87773393259303" lon="11.599470080192724"><ele>1129.0</ele><time>2026-03-24T10:19:02.982Z</time></trkpt><trkpt lat="45.877772660088716" lon="11.599383995102961"><ele>1133.5</ele><time>2026-03-24T10:19:08.982Z</time></trkpt><trkpt lat="45.877838511225306" lon="11.59935448345961"><ele>1138.0</ele><time>2026-03-24T10:19:14.982Z</time></trkpt><trkpt lat="45.87792492013695" lon="11.599367799641579"><ele>1142.5</ele><time>2026-03-24T10:19:19.982Z</time></trkpt><trkpt lat="45.87803319493953" lon="11.599429978844235"><ele>1147.0</ele><time>2026-03-24T10:19:35.982Z</time></trkpt><trkpt lat="45.87809488346063" lon="11.599457089362781"><ele>1143.142857142857</ele><time>2026-03-24T10:19:40.982Z</time></trkpt><trkpt lat="45.87814722246356" lon="11.599510430127694"><ele>1139.2857142857142</ele><time>2026-03-24T10:19:47.982Z</time></trkpt><trkpt lat="45.87821147639741" lon="11.599546104518605"><ele>1135.4285714285716</ele><time>2026-03-24T10:19:58.981Z</time></trkpt><trkpt lat="45.87827688980281" lon="11.599571225992596"><ele>1131.5714285714284</ele><time>2026-03-24T10:20:05.981Z</time></trkpt><trkpt lat="45.87833777465003" lon="11.59962272207634"><ele>1127.7142857142858</ele><time>2026-03-24T10:20:11.983Z</time></trkpt><trkpt lat="45.878398633581654" lon="11.599669638144478"><ele>1123.857142857143</ele><time>2026-03-24T10:20:18.983Z</time></trkpt><trkpt lat="45.87846204510406" lon="11.599694405265689"><ele>1120.0</ele><time>2026-03-24T10:20:24.983Z</time></trkpt><trkpt lat="45.87853102041805" lon="11.599733893945878"><ele>1119.0</ele><time>2026-03-24T10:20:30.983Z</time></trkpt><trkpt lat="45.87859458452684" lon="11.599765849018665"><ele>1118.0</ele><time>2026-03-24T10:20:35.983Z</time></trkpt><trkpt lat="45.87865416388901" lon="11.599795834268562"><ele>1117.0</ele><time>2026-03-24T10:20:41.983Z</time></trkpt><trkpt lat="45.87871683979806" lon="11.599808349721515"><ele>1116.0</ele><time>2026-03-24T10:20:49.983Z</time></trkpt><trkpt lat="45.87878418101636" lon="11.599838961557037"><ele>1115.0</ele><time>2026-03-24T10:20:54.982Z</time></trkpt><trkpt lat="45.87884828927262" lon="11.599858175695973"><ele>1114.0</ele><time>2026-03-24T10:21:00.981Z</time></trkpt><trkpt lat="45.878864579624654" lon="11.59997604524687"><ele>1113.0</ele><time>2026-03-24T10:21:18.98Z</time></trkpt><trkpt lat="45.87891028578735" lon="11.600063344373735"><ele>1113.0</ele><time>2026-03-24T10:21:32.98Z</time></trkpt><trkpt lat="45.87894400337284" lon="11.600142046784178"><ele>1113.0</ele><time>2026-03-24T10:21:46.98Z</time></trkpt><trkpt lat="45.879005189141786" lon="11.600191164956412"><ele>1113.0</ele><time>2026-03-24T10:21:59.979Z</time></trkpt><trkpt lat="45.87906918822235" lon="11.600233339225166"><ele>1113.0</ele><time>2026-03-24T10:22:08.979Z</time></trkpt><trkpt lat="45.87912798666609" lon="11.600290950704784"><ele>1113.0</ele><time>2026-03-24T10:22:17.981Z</time></trkpt><trkpt lat="45.87918070115901" lon="11.600349615615125"><ele>1113.0</ele><time>2026-03-24T10:22:29.981Z</time></trkpt><trkpt lat="45.87924286724255" lon="11.600406711519483"><ele>1113.0</ele><time>2026-03-24T10:22:44.981Z</time></trkpt><trkpt lat="45.87929424282865" lon="11.600486158203433"><ele>1108.5714285714287</ele><time>2026-03-24T10:22:57.981Z</time></trkpt><trkpt lat="45.8793378796686" lon="11.60056269697212"><ele>1104.142857142857</ele><time>2026-03-24T10:23:08.98Z</time></trkpt><trkpt lat="45.87937237146032" lon="11.600641763856366"><ele>1099.7142857142858</ele><time>2026-03-24T10:23:16.98Z</time></trkpt><trkpt lat="45.879414541227824" lon="11.60071030143209"><ele>1095.2857142857142</ele><time>2026-03-24T10:23:24.98Z</time></trkpt><trkpt lat="45.87936729463443" lon="11.60077535740983"><ele>1090.857142857143</ele><time>2026-03-24T10:23:33.98Z</time></trkpt><trkpt lat="45.879439378991194" lon="11.600807946780904"><ele>1086.4285714285716</ele><time>2026-03-24T10:23:39.98Z</time></trkpt><trkpt lat="45.87951157689349" lon="11.600823816323167"><ele>1082.0</ele><time>2026-03-24T10:23:46.98Z</time></trkpt><trkpt lat="45.87957826057282" lon="11.600814437150143"><ele>1082.0000000000002</ele><time>2026-03-24T10:23:51.98Z</time></trkpt><trkpt lat="45.879647827833246" lon="11.600818618192669"><ele>1082.0</ele><time>2026-03-24T10:23:56.98Z</time></trkpt><trkpt lat="45.87971075028064" lon="11.600822124492336"><ele>1082.0</ele><time>2026-03-24T10:24:00.98Z</time></trkpt><trkpt lat="45.87978328723248" lon="11.600796128570606"><ele>1082.0</ele><time>2026-03-24T10:24:05.98Z</time></trkpt><trkpt lat="45.8798411160055" lon="11.600750522961002"><ele>1082.0</ele><time>2026-03-24T10:24:10.98Z</time></trkpt><trkpt lat="45.879908296456364" lon="11.600715691818168"><ele>1082.0000000000002</ele><time>2026-03-24T10:24:15.98Z</time></trkpt><trkpt lat="45.87998071369364" lon="11.600694951926359"><ele>1082.0</ele><time>2026-03-24T10:24:20.981Z</time></trkpt><trkpt lat="45.88004761592582" lon="11.600728271976545"><ele>1081.2857142857144</ele><time>2026-03-24T10:24:24.981Z</time></trkpt><trkpt lat="45.88011183480696" lon="11.600731068162016"><ele>1080.5714285714287</ele><time>2026-03-24T10:24:29.981Z</time></trkpt><trkpt lat="45.880174591632596" lon="11.60075174170242"><ele>1079.857142857143</ele><time>2026-03-24T10:24:33.98Z</time></trkpt><trkpt lat="45.880231778969616" lon="11.600796951007467"><ele>1079.1428571428573</ele><time>2026-03-24T10:24:37.98Z</time></trkpt><trkpt lat="45.880293307416046" lon="11.60083411718412"><ele>1078.4285714285716</ele><time>2026-03-24T10:24:41.98Z</time></trkpt><trkpt lat="45.8803678139011" lon="11.600846125724805"><ele>1077.7142857142858</ele><time>2026-03-24T10:24:46.98Z</time></trkpt><trkpt lat="45.88044276445513" lon="11.600833678226515"><ele>1077.0</ele><time>2026-03-24T10:24:51.98Z</time></trkpt><trkpt lat="45.88051206143102" lon="11.600809130820261"><ele>1077.0</ele><time>2026-03-24T10:24:56.98Z</time></trkpt><trkpt lat="45.88058718049095" lon="11.600810240561728"><ele>1077.0</ele><time>2026-03-24T10:25:01.98Z</time></trkpt></trkseg></trk></gpx>